createdAt,value
2018-11-20T00:03:55.618Z,183.30
2018-11-20T00:19:23.230Z,138.63
2018-11-20T00:34:46.395Z,182.93
2018-11-20T00:50:08.630Z,158.37
2018-11-20T01:05:40.876Z,139.80
2018-11-20T01:21:06.592Z,172.33
2018-11-20T01:36:45.703Z,161.87
2018-11-20T01:52:22.250Z,172.03
2018-11-20T02:07:55.002Z,261.87
2018-11-20T02:23:37.782Z,205.67
2018-11-20T02:39:00.662Z,214.90
2018-11-20T02:54:26.054Z,38.07
2018-11-20T03:09:42.857Z,150.47
2018-11-20T03:25:05.121Z,113.10
2018-11-20T03:40:27.443Z,81.73
2018-11-20T03:55:47.464Z,107.47
2018-11-20T04:11:10.895Z,46.10
2018-11-20T04:26:33.433Z,88.37
2018-11-20T04:41:57.107Z,136.30
2018-11-20T04:57:20.664Z,90.17
2018-11-20T05:12:43.415Z,46.37
2018-11-20T05:28:05.915Z,48.87
2018-11-20T05:43:33.068Z,58.27
2018-11-20T05:58:55.458Z,68.40
2018-11-20T06:14:38.222Z,36.87
2018-11-20T06:30:02.565Z,44.97
2018-11-20T06:45:20.985Z,30.63
2018-11-20T07:00:47.390Z,37.10
2018-11-20T07:16:39.024Z,32.67
2018-11-20T07:32:08.986Z,36.53
2018-11-20T07:47:20.692Z,32.20
2018-11-20T08:02:53.451Z,22.43
2018-11-20T08:18:16.277Z,21.57
2018-11-20T08:33:46.513Z,22.63
2018-11-20T08:49:02.905Z,15.60
2018-11-20T09:04:39.639Z,10.87
2018-11-20T09:19:59.629Z,13.80
2018-11-20T09:35:34.626Z,5.60
2018-11-20T09:50:56.497Z,39.93
2018-11-20T10:06:26.021Z,12.17
2018-11-20T10:21:56.823Z,12.43
2018-11-20T10:37:19.234Z,18.10
2018-11-20T10:52:33.620Z,30.37
2018-11-20T11:07:58.450Z,10.80
2018-11-20T11:23:26.863Z,17.63
2018-11-20T11:38:44.718Z,12.77
2018-11-20T11:54:20.311Z,13.53
2018-11-20T12:09:46.565Z,20.33
2018-11-20T12:25:00.942Z,12.23
2018-11-20T12:40:34.132Z,20.33
2018-11-20T12:55:56.880Z,15.17
2018-11-20T13:11:21.598Z,30.30
2018-11-20T13:26:54.301Z,13.67
2018-11-20T13:42:25.852Z,32.93
2018-11-20T13:57:52.998Z,15.93
2018-11-20T14:13:10.725Z,13.07
2018-11-20T14:28:34.565Z,44.63
2018-11-20T14:43:57.408Z,12.80
2018-11-20T14:59:36.041Z,10.67
2018-11-20T15:14:58.884Z,17.10
2018-11-20T15:30:23.117Z,19.53
2018-11-20T15:45:53.519Z,15.43
2018-11-20T16:01:22.978Z,12.53
2018-11-20T16:16:52.716Z,11.93
2018-11-20T16:32:14.992Z,24.23
2018-11-20T16:47:49.947Z,51.23
2018-11-20T17:03:12.394Z,15.03
2018-11-20T17:18:36.542Z,23.97
2018-11-20T17:33:59.376Z,8.50
2018-11-20T17:49:24.165Z,22.87
2018-11-20T18:04:43.611Z,20.37
2018-11-20T18:20:25.713Z,5.00
2018-11-20T18:35:48.546Z,10.20
2018-11-20T18:51:11.286Z,9.47
2018-11-20T19:06:34.978Z,9.37
2018-11-20T19:22:07.777Z,15.90
2018-11-20T19:37:50.005Z,9.13
2018-11-20T19:53:12.730Z,5.47
2018-11-20T20:08:42.864Z,18.87
2018-11-20T20:23:58.748Z,9.67
2018-11-20T20:39:23.272Z,7.10
2018-11-20T20:54:48.974Z,9.17
2018-11-20T21:10:25.832Z,7.07
2018-11-20T21:25:52.038Z,12.13
2018-11-20T21:41:29.531Z,16.10
2018-11-20T21:56:59.159Z,8.97
2018-11-20T22:12:26.662Z,8.97
2018-11-20T22:28:00.979Z,8.00
2018-11-20T22:43:24.712Z,9.07
2018-11-20T22:58:58.509Z,8.93
2018-11-20T23:14:03.839Z,6.33
2018-11-20T23:29:09.657Z,7.47
2018-11-20T23:44:15.704Z,5.40
2018-11-20T23:59:21.440Z,9.57
